»·PEaware :: N223JX KSAN-KCPM

N223JX :: KSAN-KCPM

FLIGHT INFORMATION

Flight Status: Arrived
Operator: Privately registered:
United States
More flights under this callsign
Pilot: William N. (15320)
Aircraft: CESSNA 172 SKYHAWK
(C172)
More flights by this aircraft type
Origin: KSAN San Diego Intl-Lindbergh
United States
Destination: KCPM Compton/Woodley
United States
More flights between these airports :: More routes between these airports
Route: MZB FERMY
File this flight plan on PilotEdge
Remarks:
Altitude:
(Current/Filed)
2,500ft
Speed:
(Current/Filed)
115kts
Departed: 07-May-18 12:26 PM
Arrived: 07-May-18 01:18 PM
Distance/Time
Traveled:
1nm/0:52
Distance/Time
To Go:
Arrived

Flight Plot

Page will automatically refresh every two minutes.

Flight plan parsing failed; only flown route is shown


Map Options




Map Legend


Flown Route
Filed Route
Departure Airport
Arrival Airport
Navaid (VOR, NDB)
Fix

Horizontal Profiles

Position Reports

Time Latitude Longitude Heading Altitude Ground
Speed
07-May-18 12:11 32.732006 -117.176222 194 28ft 0kts
07-May-18 12:12 32.732006 -117.176222 194 28ft 0kts
07-May-18 12:13 32.732006 -117.176222 194 28ft 0kts
07-May-18 12:14 32.732006 -117.176222 194 28ft 0kts
07-May-18 12:15 32.732006 -117.176222 194 28ft 0kts
07-May-18 12:16 32.732006 -117.176222 194 28ft 0kts
07-May-18 12:17 32.732006 -117.176222 194 28ft 0kts
07-May-18 12:18 32.732006 -117.176222 194 28ft 0kts
07-May-18 12:19 32.732006 -117.176222 194 28ft 0kts
07-May-18 12:20 32.732006 -117.176222 194 28ft 0kts
07-May-18 12:21 32.732006 -117.176222 194 28ft 0kts
07-May-18 12:22 32.731687 -117.176055 109 27ft 8kts
07-May-18 12:23 32.731089 -117.175673 230 26ft 0kts
07-May-18 12:24 32.731089 -117.175673 230 26ft 0kts
07-May-18 12:25 32.730644 -117.175519 166 25ft 8kts
07-May-18 12:26 32.731677 -117.181042 279 51ft 70kts
07-May-18 12:27 32.740826 -117.200855 322 981ft 77kts
07-May-18 12:28 32.760815 -117.213454 325 1695ft 83kts
07-May-18 12:29 32.782901 -117.229200 322 1985ft 112kts
07-May-18 12:30 32.809611 -117.249268 322 1973ft 115kts
07-May-18 12:31 32.836811 -117.269092 323 1995ft 115kts
07-May-18 12:32 32.864414 -117.289505 323 1968ft 117kts
07-May-18 12:33 32.891980 -117.310420 323 1968ft 118kts
07-May-18 12:34 32.919626 -117.331318 323 1967ft 118kts
07-May-18 12:35 32.944436 -117.354895 315 1966ft 111kts
07-May-18 12:36 32.967498 -117.378777 312 1967ft 108kts
07-May-18 12:37 32.988893 -117.402131 312 2212ft 93kts
07-May-18 12:38 33.007160 -117.421348 312 2672ft 93kts
07-May-18 12:39 33.028949 -117.445063 313 2500ft 114kts
07-May-18 12:40 33.052850 -117.471359 313 2472ft 117kts
07-May-18 12:41 33.076627 -117.496933 313 2471ft 114kts
07-May-18 12:42 33.100007 -117.522092 313 2471ft 113kts
07-May-18 12:43 33.122040 -117.545685 313 2470ft 113kts
07-May-18 12:44 33.140970 -117.567967 308 2489ft 111kts
07-May-18 12:45 33.161843 -117.595580 309 2489ft 112kts
07-May-18 12:46 33.182832 -117.623247 308 2489ft 112kts
07-May-18 12:47 33.203200 -117.647805 316 2649ft 101kts
07-May-18 12:48 33.225287 -117.672528 310 2535ft 113kts
07-May-18 12:49 33.247293 -117.699137 313 2560ft 112kts
07-May-18 12:50 33.271012 -117.724350 312 2541ft 114kts
07-May-18 12:51 33.293104 -117.751352 311 2523ft 114kts
07-May-18 12:52 33.314888 -117.779193 303 2473ft 114kts
07-May-18 12:53 33.338522 -117.804394 324 2391ft 117kts
07-May-18 12:54 33.364590 -117.821665 325 2467ft 112kts
07-May-18 12:55 33.389806 -117.844621 311 2499ft 115kts
07-May-18 12:56 33.412117 -117.872413 304 2565ft 116kts
07-May-18 12:57 33.432636 -117.902516 306 2618ft 117kts
07-May-18 12:58 33.458777 -117.927413 315 2592ft 120kts
07-May-18 12:59 33.482880 -117.955648 309 2542ft 122kts
07-May-18 13:00 33.507597 -117.983694 316 2495ft 123kts
07-May-18 13:01 33.534577 -118.006554 311 2429ft 121kts
07-May-18 13:02 33.557665 -118.035207 308 2433ft 119kts
07-May-18 13:03 33.580047 -118.064479 303 2417ft 119kts
07-May-18 13:04 33.602747 -118.093711 319 2379ft 123kts
07-May-18 13:05 33.629872 -118.117838 314 2390ft 121kts
07-May-18 13:06 33.654323 -118.145457 305 2408ft 119kts
07-May-18 13:07 33.679235 -118.169944 323 2349ft 122kts
07-May-18 13:08 33.703550 -118.188983 324 2418ft 118kts
07-May-18 13:09 33.730553 -118.211881 319 2424ft 122kts
07-May-18 13:10 33.761401 -118.228086 349 1912ft 125kts
07-May-18 13:11 33.795933 -118.232216 354 1315ft 122kts
07-May-18 13:12 33.825253 -118.246667 322 1047ft 117kts
07-May-18 13:13 33.851537 -118.268845 323 1031ft 111kts
07-May-18 13:14 33.880288 -118.266247 74 917ft 124kts
07-May-18 13:14 33.874692 -118.235122 93 820ft 114kts
07-May-18 13:15 33.880636 -118.207317 2 559ft 84kts
07-May-18 13:16 33.889843 -118.223510 264 378ft 69kts
07-May-18 13:17 33.889613 -118.243236 272 100ft 22kts
07-May-18 13:18 33.889158 -118.243582 93 100ft 0kts
07-May-18 13:19 33.889158 -118.243582 93 100ft 0kts
07-May-18 13:20 33.889158 -118.243582 93 100ft 0kts
07-May-18 13:21 33.889158 -118.243582 93 100ft 0kts
07-May-18 13:22 33.889158 -118.243582 93 100ft 0kts
07-May-18 13:23 33.889158 -118.243582 93 100ft 0kts
07-May-18 13:24 33.889158 -118.243582 93 100ft 0kts
07-May-18 13:25 33.889158 -118.243582 93 100ft 0kts
07-May-18 13:26 32.731986 -117.176228 188 29ft 0kts
07-May-18 13:27 32.731986 -117.176228 188 29ft 0kts
07-May-18 13:28 32.731986 -117.176228 188 29ft 0kts
07-May-18 13:29 32.731986 -117.176228 188 29ft 0kts
07-May-18 13:30 32.731986 -117.176228 188 29ft 0kts
07-May-18 13:31 32.731986 -117.176228 188 29ft 0kts

Navigation Log

Ident Type
Flight plan parsing failed, navigation log unavailable